createdAt,value
2018-06-21T00:02:04.200Z,24.01
2018-06-21T00:04:32.605Z,23.98
2018-06-21T00:07:01.062Z,23.92
2018-06-21T00:09:29.547Z,23.91
2018-06-21T00:11:57.955Z,23.92
2018-06-21T00:14:26.410Z,23.92
2018-06-21T00:16:54.925Z,23.80
2018-06-21T00:19:23.373Z,23.73
2018-06-21T00:21:51.880Z,23.66
2018-06-21T00:24:20.676Z,23.59
2018-06-21T00:26:49.168Z,23.56
2018-06-21T00:29:17.942Z,23.52
2018-06-21T00:31:46.318Z,23.47
2018-06-21T00:34:14.969Z,23.51
2018-06-21T00:36:43.418Z,23.52
2018-06-21T00:39:12.561Z,23.52
2018-06-21T00:41:41.133Z,23.45
2018-06-21T00:44:09.657Z,23.44
2018-06-21T00:46:38.029Z,23.41
2018-06-21T00:49:06.990Z,23.42
2018-06-21T00:51:35.489Z,23.32
2018-06-21T00:54:03.971Z,23.30
2018-06-21T00:56:32.600Z,23.24
2018-06-21T00:59:01.086Z,23.28
2018-06-21T01:01:30.223Z,23.22
2018-06-21T01:03:59.184Z,23.22
2018-06-21T01:06:27.709Z,23.24
2018-06-21T01:08:56.266Z,23.27
2018-06-21T01:11:24.788Z,23.16
2018-06-21T01:13:53.465Z,23.15
2018-06-21T01:16:22.646Z,23.21
2018-06-21T01:18:51.655Z,23.12
2018-06-21T01:21:20.125Z,23.03
2018-06-21T01:23:48.750Z,22.98
2018-06-21T01:26:17.412Z,22.96
2018-06-21T01:28:45.888Z,22.94
2018-06-21T01:31:14.363Z,22.94
2018-06-21T01:33:42.832Z,22.97
2018-06-21T01:36:11.361Z,23.04
2018-06-21T01:38:39.899Z,23.00
2018-06-21T01:41:08.332Z,22.97
2018-06-21T01:43:36.764Z,22.99
2018-06-21T01:46:05.604Z,23.00
2018-06-21T01:48:34.015Z,23.00
2018-06-21T01:51:02.707Z,22.93
2018-06-21T01:53:31.095Z,22.93
2018-06-21T01:55:59.497Z,22.89
2018-06-21T01:58:27.957Z,22.90
2018-06-21T02:00:56.794Z,22.90
2018-06-21T02:03:25.183Z,22.87
2018-06-21T02:05:53.673Z,22.67
2018-06-21T02:08:22.861Z,22.70
2018-06-21T02:10:51.359Z,22.63
2018-06-21T02:13:20.033Z,22.66
2018-06-21T02:15:48.523Z,22.56
2018-06-21T02:18:17.090Z,22.58
2018-06-21T02:20:45.700Z,22.60
2018-06-21T02:23:14.125Z,22.62
2018-06-21T02:25:42.570Z,22.58
2018-06-21T02:28:11.034Z,22.48
2018-06-21T02:30:39.790Z,22.23
2018-06-21T02:33:08.420Z,22.25
2018-06-21T02:35:36.916Z,22.17
2018-06-21T02:38:05.402Z,22.27
2018-06-21T02:40:34.267Z,22.31
2018-06-21T02:43:02.657Z,22.29
2018-06-21T02:45:31.166Z,22.27
2018-06-21T02:47:59.589Z,22.30
2018-06-21T02:50:28.161Z,22.29
2018-06-21T02:52:56.958Z,22.19
2018-06-21T02:55:25.455Z,22.19
2018-06-21T02:57:54.518Z,22.11
2018-06-21T03:00:23.239Z,22.12
2018-06-21T03:02:51.754Z,22.17
2018-06-21T03:05:20.281Z,22.18
2018-06-21T03:07:48.748Z,22.10
2018-06-21T03:10:17.474Z,22.11
2018-06-21T03:12:45.948Z,22.07
2018-06-21T03:15:14.509Z,22.02
2018-06-21T03:17:42.952Z,22.00
2018-06-21T03:20:11.429Z,21.98
2018-06-21T03:22:39.967Z,21.80
2018-06-21T03:25:08.738Z,21.86
2018-06-21T03:27:37.148Z,21.89
2018-06-21T03:30:05.678Z,21.90
2018-06-21T03:32:34.406Z,21.90
2018-06-21T03:35:02.924Z,21.88
2018-06-21T03:37:31.325Z,21.72
2018-06-21T03:39:59.955Z,21.78
2018-06-21T03:42:28.459Z,21.77
2018-06-21T03:44:56.882Z,21.78
2018-06-21T03:47:25.342Z,21.82
2018-06-21T03:49:53.812Z,21.71
2018-06-21T03:52:22.370Z,21.75
2018-06-21T03:54:50.730Z,21.77
2018-06-21T03:57:19.392Z,21.79
2018-06-21T03:59:47.941Z,21.82
2018-06-21T04:02:16.550Z,21.84
2018-06-21T04:04:45.383Z,21.89
2018-06-21T04:07:13.976Z,21.93
2018-06-21T04:09:42.466Z,21.93
2018-06-21T04:12:10.963Z,21.78
2018-06-21T04:14:39.469Z,21.72
2018-06-21T04:17:07.943Z,21.67
2018-06-21T04:19:36.500Z,21.70
2018-06-21T04:22:04.994Z,21.76
2018-06-21T04:24:34.095Z,21.88
2018-06-21T04:27:02.865Z,21.88
2018-06-21T04:29:31.476Z,21.91
2018-06-21T04:32:00.141Z,21.79
2018-06-21T04:34:28.839Z,22.03
2018-06-21T04:36:58.209Z,22.12
2018-06-21T04:39:26.903Z,22.17
2018-06-21T04:43:55.124Z,22.25
2018-06-21T04:46:23.677Z,22.19
2018-06-21T04:48:52.125Z,22.21
2018-06-21T04:51:20.691Z,22.25
2018-06-21T04:53:49.090Z,22.32
2018-06-21T04:56:17.551Z,22.42
2018-06-21T04:58:45.969Z,22.41
2018-06-21T05:01:14.534Z,22.29
2018-06-21T05:03:42.922Z,22.29
2018-06-21T05:06:11.913Z,22.36
2018-06-21T05:08:41.083Z,22.41
2018-06-21T05:11:10.286Z,22.46
2018-06-21T05:13:38.799Z,22.43
2018-06-21T05:16:07.833Z,22.36
2018-06-21T05:18:36.347Z,22.34
2018-06-21T05:21:04.773Z,22.49
2018-06-21T05:23:33.192Z,22.57
2018-06-21T05:26:02.390Z,22.82
2018-06-21T05:28:31.160Z,22.92
2018-06-21T05:30:59.653Z,23.07
2018-06-21T05:33:28.205Z,23.11
2018-06-21T05:35:56.672Z,23.20
2018-06-21T05:38:25.173Z,23.34
2018-06-21T05:40:53.573Z,23.29
2018-06-21T05:43:22.215Z,23.31
2018-06-21T05:45:50.694Z,23.31
2018-06-21T05:48:19.285Z,23.36
2018-06-21T05:50:47.783Z,23.57
2018-06-21T05:53:16.265Z,23.70
2018-06-21T05:55:44.926Z,23.48
2018-06-21T05:58:13.451Z,23.73
2018-06-21T06:00:41.997Z,23.67
2018-06-21T06:03:10.649Z,23.63
2018-06-21T06:05:39.180Z,23.79
2018-06-21T06:08:07.697Z,23.90
2018-06-21T06:10:36.106Z,23.93
2018-06-21T06:13:04.584Z,23.90
2018-06-21T06:15:33.197Z,23.90
2018-06-21T06:18:01.622Z,23.90
2018-06-21T06:20:30.047Z,23.82
2018-06-21T06:22:59.328Z,23.92
2018-06-21T06:25:27.695Z,23.98
2018-06-21T06:27:56.131Z,24.15
2018-06-21T06:30:24.712Z,24.21
2018-06-21T06:32:53.166Z,24.34
2018-06-21T06:35:21.772Z,24.38
2018-06-21T06:37:50.253Z,24.30
2018-06-21T06:40:18.794Z,24.45
2018-06-21T06:42:47.384Z,24.43
2018-06-21T06:45:15.857Z,24.48
2018-06-21T06:47:44.587Z,24.61
2018-06-21T06:50:13.007Z,24.77
2018-06-21T06:52:41.449Z,24.74
2018-06-21T06:55:09.927Z,24.97
2018-06-21T06:57:38.372Z,25.23
2018-06-21T07:00:07.302Z,25.29
2018-06-21T07:02:35.749Z,25.18
2018-06-21T07:05:04.299Z,25.29
2018-06-21T07:07:33.054Z,25.46
2018-06-21T07:10:01.639Z,25.68
2018-06-21T07:12:30.159Z,25.75
2018-06-21T07:14:58.613Z,25.86
2018-06-21T07:17:27.109Z,25.88
2018-06-21T07:19:55.540Z,25.97
2018-06-21T07:22:24.158Z,25.97
2018-06-21T07:24:53.625Z,25.95
2018-06-21T07:27:22.623Z,26.05
2018-06-21T07:29:51.145Z,26.04
2018-06-21T07:32:19.598Z,26.14
2018-06-21T07:34:48.026Z,26.22
2018-06-21T07:37:16.427Z,26.30
2018-06-21T07:39:44.946Z,26.42
2018-06-21T07:42:13.502Z,26.59
2018-06-21T07:44:41.940Z,26.71
2018-06-21T07:47:10.449Z,26.80
2018-06-21T07:49:39.704Z,27.03
2018-06-21T07:52:08.212Z,27.07
2018-06-21T07:54:37.417Z,26.94
2018-06-21T07:57:06.181Z,27.06
2018-06-21T07:59:34.607Z,27.01
2018-06-21T08:02:03.089Z,27.14
2018-06-21T08:04:31.518Z,27.19
2018-06-21T08:06:59.936Z,27.33
2018-06-21T08:09:28.417Z,27.48
2018-06-21T08:11:57.077Z,27.75
2018-06-21T08:14:26.160Z,28.00
2018-06-21T08:16:55.783Z,28.00
2018-06-21T08:19:24.219Z,28.01
2018-06-21T08:21:53.780Z,27.92
2018-06-21T08:24:22.429Z,27.88
2018-06-21T08:26:50.956Z,27.66
2018-06-21T08:29:19.580Z,27.56
2018-06-21T08:31:48.069Z,27.64
2018-06-21T08:34:16.692Z,27.73
2018-06-21T08:36:45.220Z,27.65
2018-06-21T08:39:13.722Z,27.56
2018-06-21T08:41:42.206Z,27.49
2018-06-21T08:44:10.653Z,27.74
2018-06-21T08:46:39.232Z,27.91
2018-06-21T08:49:07.675Z,28.11
2018-06-21T08:51:36.230Z,28.21
2018-06-21T08:54:05.405Z,28.53
2018-06-21T08:56:33.911Z,28.73
2018-06-21T08:59:02.445Z,28.79
2018-06-21T09:01:30.865Z,28.87
2018-06-21T09:04:00.563Z,29.11
2018-06-21T09:06:28.983Z,29.11
2018-06-21T09:08:57.545Z,29.07
2018-06-21T09:11:27.142Z,29.08
2018-06-21T09:13:55.580Z,29.16
2018-06-21T09:16:24.226Z,29.19
2018-06-21T09:18:53.376Z,29.16
2018-06-21T09:21:21.772Z,29.01
2018-06-21T09:23:50.249Z,29.01
2018-06-21T09:26:19.582Z,28.98
2018-06-21T09:28:48.059Z,29.25
2018-06-21T09:31:16.516Z,29.26
2018-06-21T09:33:45.088Z,29.18
2018-06-21T09:36:13.664Z,29.22
2018-06-21T09:38:47.378Z,29.34
2018-06-21T09:41:21.583Z,29.35
2018-06-21T09:44:03.820Z,29.35
2018-06-21T09:46:33.870Z,29.28
2018-06-21T09:48:57.870Z,29.31
2018-06-21T09:51:26.361Z,29.26
2018-06-21T09:53:54.861Z,29.08
2018-06-21T09:56:24.098Z,29.05
2018-06-21T09:58:52.527Z,28.93
2018-06-21T10:01:21.048Z,28.83
2018-06-21T10:03:49.541Z,28.73
2018-06-21T10:06:18.139Z,28.68
2018-06-21T10:08:46.692Z,28.70
2018-06-21T10:11:15.426Z,28.80
2018-06-21T10:13:43.838Z,29.22
2018-06-21T10:16:12.669Z,29.42
2018-06-21T10:18:41.850Z,29.56
2018-06-21T10:21:10.488Z,29.50
2018-06-21T10:23:39.055Z,29.62
2018-06-21T10:26:07.567Z,29.65
2018-06-21T10:28:36.095Z,29.59
2018-06-21T10:31:05.167Z,29.40
2018-06-21T10:33:33.588Z,29.64
2018-06-21T10:36:02.155Z,29.84
2018-06-21T10:38:30.612Z,29.73
2018-06-21T10:40:59.094Z,29.74
2018-06-21T10:43:27.640Z,29.74
2018-06-21T10:45:56.140Z,29.63
2018-06-21T10:48:24.597Z,29.67
2018-06-21T10:50:53.135Z,29.81
2018-06-21T10:53:21.698Z,30.06
2018-06-21T10:55:50.279Z,30.20
2018-06-21T10:58:18.786Z,30.12
2018-06-21T11:00:47.421Z,30.18
2018-06-21T11:03:15.952Z,30.17
2018-06-21T11:05:44.535Z,30.29
2018-06-21T11:08:13.117Z,30.22
2018-06-21T11:10:41.632Z,30.12
2018-06-21T11:13:10.445Z,30.24
2018-06-21T11:15:38.938Z,30.39
2018-06-21T11:18:09.165Z,30.11
2018-06-21T11:20:37.870Z,29.83
2018-06-21T11:23:06.394Z,29.67
2018-06-21T11:25:34.916Z,30.03
2018-06-21T11:28:03.475Z,30.20
2018-06-21T11:30:32.127Z,30.31
2018-06-21T11:33:00.656Z,30.36
2018-06-21T11:35:29.129Z,30.46
2018-06-21T11:37:57.779Z,30.47
2018-06-21T11:40:26.335Z,30.48
2018-06-21T11:42:54.826Z,30.49
2018-06-21T11:45:23.546Z,30.59
2018-06-21T11:47:52.032Z,30.69
2018-06-21T11:50:20.595Z,30.57
2018-06-21T11:52:49.159Z,30.46
2018-06-21T11:55:18.329Z,30.31
2018-06-21T11:57:46.914Z,30.38
2018-06-21T12:00:15.992Z,30.65
2018-06-21T12:02:44.463Z,30.70
2018-06-21T12:05:14.154Z,30.56
2018-06-21T12:07:42.614Z,30.66
2018-06-21T12:10:11.098Z,30.51
2018-06-21T12:12:39.670Z,30.50
2018-06-21T12:15:08.175Z,30.37
2018-06-21T12:17:36.940Z,30.38
2018-06-21T12:20:05.370Z,30.41
2018-06-21T12:22:33.844Z,30.54
2018-06-21T12:25:02.455Z,30.44
2018-06-21T12:27:30.971Z,30.12
2018-06-21T12:29:59.475Z,29.78
2018-06-21T12:32:27.928Z,29.49
2018-06-21T12:34:56.390Z,29.56
2018-06-21T12:37:24.795Z,29.68
2018-06-21T12:39:53.297Z,29.94
2018-06-21T12:42:21.735Z,30.19
2018-06-21T12:44:50.293Z,30.75
2018-06-21T12:47:18.798Z,30.85
2018-06-21T12:49:47.217Z,30.44
2018-06-21T12:52:15.793Z,30.60
2018-06-21T12:54:44.224Z,30.56
2018-06-21T12:57:12.738Z,30.71
2018-06-21T12:59:41.947Z,31.65
2018-06-21T13:02:10.432Z,32.30
2018-06-21T13:04:38.920Z,32.79
2018-06-21T13:07:07.386Z,33.40
2018-06-21T13:09:47.176Z,33.66
2018-06-21T13:12:30.990Z,33.58
2018-06-21T13:14:59.523Z,32.92
2018-06-21T13:17:29.383Z,32.38
2018-06-21T13:19:58.638Z,31.95
2018-06-21T13:22:27.676Z,31.60
2018-06-21T13:24:56.115Z,31.16
2018-06-21T13:27:24.571Z,31.02
2018-06-21T13:29:53.075Z,32.10
2018-06-21T13:32:21.591Z,32.30
2018-06-21T13:34:50.419Z,32.80
2018-06-21T13:37:18.967Z,32.79
2018-06-21T13:39:47.456Z,33.23
2018-06-21T13:42:16.081Z,33.89
2018-06-21T13:44:44.704Z,34.26
2018-06-21T13:47:13.524Z,34.15
2018-06-21T13:49:42.021Z,34.25
2018-06-21T13:52:10.471Z,33.83
2018-06-21T13:54:39.002Z,33.18
2018-06-21T13:57:07.462Z,32.67
2018-06-21T13:59:35.965Z,32.71
2018-06-21T14:02:04.751Z,32.33
2018-06-21T14:04:33.206Z,32.61
2018-06-21T14:07:02.292Z,32.35
2018-06-21T14:09:30.711Z,31.96
2018-06-21T14:11:59.436Z,31.65
2018-06-21T14:14:27.872Z,31.56
2018-06-21T14:16:56.406Z,31.57
2018-06-21T14:19:24.885Z,31.10
2018-06-21T14:21:53.473Z,31.16
2018-06-21T14:24:22.061Z,30.58
2018-06-21T14:26:50.542Z,30.32
2018-06-21T14:29:19.018Z,29.98
2018-06-21T14:31:48.211Z,30.68
2018-06-21T14:34:16.686Z,30.93
2018-06-21T14:36:45.897Z,30.92
2018-06-21T14:39:14.560Z,30.76
2018-06-21T14:41:43.104Z,31.06
2018-06-21T14:44:11.751Z,30.73
2018-06-21T14:46:46.187Z,30.51
2018-06-21T14:49:14.678Z,30.35
2018-06-21T14:51:43.182Z,30.44
2018-06-21T14:54:12.256Z,30.63
2018-06-21T14:56:40.854Z,30.23
2018-06-21T14:59:09.290Z,30.48
2018-06-21T15:01:37.992Z,30.11
2018-06-21T15:04:06.463Z,30.10
2018-06-21T15:06:34.936Z,30.13
2018-06-21T15:09:08.197Z,29.91
2018-06-21T15:11:38.148Z,28.37
2018-06-21T15:14:08.451Z,28.47
2018-06-21T15:16:38.341Z,28.58
2018-06-21T15:19:08.312Z,28.46
2018-06-21T15:21:38.171Z,28.59
2018-06-21T15:24:08.427Z,28.49
2018-06-21T15:26:38.533Z,28.48
2018-06-21T15:29:08.496Z,27.96
2018-06-21T15:31:38.276Z,27.74
2018-06-21T15:34:08.707Z,27.35
2018-06-21T15:36:39.184Z,27.93
2018-06-21T15:39:24.770Z,27.79
2018-06-21T15:41:54.520Z,27.79
2018-06-21T15:44:24.517Z,27.80
2018-06-21T15:46:54.805Z,27.88
2018-06-21T15:49:24.733Z,27.85
2018-06-21T15:51:54.597Z,27.38
2018-06-21T15:54:24.392Z,27.34
2018-06-21T15:56:53.483Z,27.12
2018-06-21T15:59:22.092Z,27.16
2018-06-21T16:01:50.561Z,27.46
2018-06-21T16:04:19.211Z,27.20
2018-06-21T16:06:48.893Z,27.00
2018-06-21T16:09:18.161Z,27.07
2018-06-21T16:11:46.723Z,27.30
2018-06-21T16:14:16.437Z,27.17
2018-06-21T16:16:48.967Z,27.09
2018-06-21T16:19:17.531Z,26.96
2018-06-21T16:21:45.992Z,27.09
2018-06-21T16:24:14.477Z,26.92
2018-06-21T16:26:42.993Z,26.95
2018-06-21T16:29:11.494Z,26.84
2018-06-21T16:31:40.142Z,26.94
2018-06-21T16:34:13.305Z,26.86
2018-06-21T16:36:44.377Z,26.54
2018-06-21T16:39:16.170Z,26.44
2018-06-21T16:41:45.442Z,26.29
2018-06-21T16:44:14.718Z,26.17
2018-06-21T16:46:43.295Z,26.10
2018-06-21T16:49:11.794Z,26.04
2018-06-21T16:51:40.269Z,25.85
2018-06-21T16:54:08.857Z,25.82
2018-06-21T16:56:37.410Z,25.74
2018-06-21T16:59:06.031Z,25.69
2018-06-21T17:01:34.492Z,25.92
2018-06-21T17:04:03.020Z,26.01
2018-06-21T17:06:31.567Z,25.83
2018-06-21T17:09:00.038Z,25.83
2018-06-21T17:11:28.759Z,25.75
2018-06-21T17:13:57.274Z,25.63
2018-06-21T17:16:25.806Z,25.89
2018-06-21T17:18:54.312Z,26.01
2018-06-21T17:21:22.950Z,25.93
2018-06-21T17:23:51.456Z,26.10
2018-06-21T17:26:19.987Z,25.81
2018-06-21T17:28:48.624Z,25.46
2018-06-21T17:31:17.133Z,25.85
2018-06-21T17:33:45.667Z,25.62
2018-06-21T17:36:14.296Z,25.27
2018-06-21T17:38:43.308Z,25.50
2018-06-21T17:41:12.037Z,25.32
2018-06-21T17:43:40.619Z,25.10
2018-06-21T17:46:10.051Z,25.16
2018-06-21T17:48:38.532Z,25.24
2018-06-21T17:51:07.018Z,25.15
2018-06-21T17:53:35.548Z,24.69
2018-06-21T17:56:04.112Z,24.51
2018-06-21T17:58:32.653Z,24.45
2018-06-21T18:01:01.380Z,24.48
2018-06-21T18:03:29.883Z,24.31
2018-06-21T18:05:58.989Z,23.96
2018-06-21T18:08:28.151Z,23.57
2018-06-21T18:10:56.674Z,23.74
2018-06-21T18:13:25.186Z,23.91
2018-06-21T18:15:53.785Z,23.72
2018-06-21T18:18:23.077Z,23.69
2018-06-21T18:20:52.621Z,23.59
2018-06-21T18:23:22.285Z,23.49
2018-06-21T18:25:53.730Z,23.63
2018-06-21T18:28:24.271Z,23.55
2018-06-21T18:30:53.275Z,23.47
2018-06-21T18:33:21.933Z,23.40
2018-06-21T18:35:50.695Z,23.22
2018-06-21T18:38:19.343Z,23.02
2018-06-21T18:40:47.888Z,22.69
2018-06-21T18:43:17.405Z,22.40
2018-06-21T18:45:47.765Z,22.36
2018-06-21T18:48:17.618Z,22.55
2018-06-21T18:50:47.492Z,22.62
2018-06-21T18:53:17.596Z,22.29
2018-06-21T18:55:47.441Z,22.22
2018-06-21T18:58:17.090Z,22.31
2018-06-21T19:00:46.550Z,22.20
2018-06-21T19:03:15.233Z,22.35
2018-06-21T19:05:43.679Z,22.12
2018-06-21T19:08:18.105Z,22.28
2018-06-21T19:10:52.741Z,22.33
2018-06-21T19:13:21.625Z,22.24
2018-06-21T19:15:50.952Z,22.46
2018-06-21T19:18:20.370Z,22.18
2018-06-21T19:20:50.571Z,22.17
2018-06-21T19:23:19.610Z,22.29
2018-06-21T19:25:49.051Z,22.20
2018-06-21T19:28:18.380Z,22.29
2018-06-21T19:30:47.822Z,22.24
2018-06-21T19:33:16.305Z,21.92
2018-06-21T19:35:45.789Z,21.99
2018-06-21T19:38:14.786Z,22.28
2018-06-21T19:40:44.334Z,22.06
2018-06-21T19:43:14.607Z,21.78
2018-06-21T19:45:43.756Z,21.49
2018-06-21T19:48:13.593Z,21.59
2018-06-21T19:50:42.980Z,21.33
2018-06-21T19:53:13.395Z,21.18
2018-06-21T19:55:44.212Z,21.02
2018-06-21T19:58:14.381Z,21.28
2018-06-21T20:00:43.417Z,21.09
2018-06-21T20:03:12.651Z,20.90
2018-06-21T20:05:41.933Z,20.87
2018-06-21T20:08:11.546Z,20.94
2018-06-21T20:10:40.925Z,20.50
2018-06-21T20:13:10.284Z,20.73
2018-06-21T20:15:55.841Z,20.77
2018-06-21T20:18:24.722Z,20.50
2018-06-21T20:20:54.063Z,20.73
2018-06-21T20:23:22.607Z,20.70
2018-06-21T20:25:53.877Z,20.77
2018-06-21T20:28:22.502Z,20.84
2018-06-21T20:30:51.472Z,20.64
2018-06-21T20:33:19.921Z,20.57
2018-06-21T20:35:48.415Z,20.21
2018-06-21T20:38:16.987Z,20.48
2018-06-21T20:40:45.402Z,20.45
2018-06-21T20:43:13.919Z,20.21
2018-06-21T20:45:42.504Z,20.16
2018-06-21T20:48:10.993Z,19.96
2018-06-21T20:50:39.446Z,19.66
2018-06-21T20:53:07.990Z,19.91
2018-06-21T20:55:36.641Z,19.81
2018-06-21T20:58:05.392Z,19.65
2018-06-21T21:00:33.990Z,19.96
2018-06-21T21:03:02.437Z,19.93
2018-06-21T21:05:30.889Z,19.63
2018-06-21T21:08:00.324Z,19.70
2018-06-21T21:10:28.785Z,19.88
2018-06-21T21:12:57.326Z,19.94
2018-06-21T21:15:26.020Z,19.53
2018-06-21T21:17:54.561Z,19.01
2018-06-21T21:20:23.114Z,19.31
2018-06-21T21:22:51.572Z,18.78
2018-06-21T21:25:20.253Z,18.80
2018-06-21T21:27:48.720Z,18.57
2018-06-21T21:30:17.188Z,18.82
2018-06-21T21:32:45.921Z,18.98
2018-06-21T21:35:14.377Z,18.87
2018-06-21T21:37:43.603Z,18.76
2018-06-21T21:40:12.104Z,18.48
2018-06-21T21:42:40.638Z,18.77
2018-06-21T21:45:09.194Z,18.78
2018-06-21T21:47:37.812Z,18.60
2018-06-21T21:50:06.405Z,18.48
2018-06-21T21:52:35.011Z,18.03
2018-06-21T21:55:03.524Z,18.18
2018-06-21T21:57:31.965Z,18.19
2018-06-21T22:00:00.950Z,18.25
2018-06-21T22:02:29.437Z,18.34
2018-06-21T22:04:58.014Z,17.96
2018-06-21T22:07:26.449Z,18.19
2018-06-21T22:09:54.904Z,17.73
2018-06-21T22:12:23.621Z,17.76
2018-06-21T22:14:52.062Z,17.92
2018-06-21T22:17:20.515Z,17.78
2018-06-21T22:19:48.956Z,17.75
2018-06-21T22:22:17.472Z,17.92
2018-06-21T22:24:45.937Z,17.45
2018-06-21T22:27:14.381Z,17.31
2018-06-21T22:29:42.826Z,17.17
2018-06-21T22:32:11.283Z,17.35
2018-06-21T22:34:39.675Z,17.60
2018-06-21T22:37:08.178Z,17.78
2018-06-21T22:39:36.615Z,17.50
2018-06-21T22:42:05.070Z,17.37
2018-06-21T22:44:33.530Z,16.88
2018-06-21T22:47:02.063Z,16.98
2018-06-21T22:49:31.193Z,16.88
2018-06-21T22:51:59.663Z,17.23
2018-06-21T22:54:28.128Z,16.81
2018-06-21T22:56:56.653Z,17.07
2018-06-21T22:59:25.290Z,16.83
2018-06-21T23:01:53.775Z,16.63
2018-06-21T23:04:22.472Z,16.90
2018-06-21T23:06:50.985Z,17.08
2018-06-21T23:09:19.510Z,17.15
2018-06-21T23:11:48.128Z,16.85
2018-06-21T23:14:17.281Z,16.96
2018-06-21T23:16:45.745Z,16.79
2018-06-21T23:19:25.556Z,16.68
2018-06-21T23:21:54.241Z,17.02
2018-06-21T23:24:23.327Z,16.94
2018-06-21T23:26:52.284Z,17.03
2018-06-21T23:29:20.806Z,16.44
2018-06-21T23:31:49.605Z,16.15
2018-06-21T23:34:18.608Z,16.35
2018-06-21T23:36:47.114Z,15.95
2018-06-21T23:39:15.549Z,16.20
2018-06-21T23:41:44.368Z,15.93
2018-06-21T23:44:13.975Z,15.82
2018-06-21T23:46:43.247Z,15.95
2018-06-21T23:49:12.135Z,15.93
2018-06-21T23:51:40.783Z,16.22
2018-06-21T23:54:11.175Z,15.90
2018-06-21T23:56:39.900Z,15.83
2018-06-21T23:59:08.436Z,16.19
